Time;durP1;ratioP1;P1;durP2;ratioP2;P2;SDS_P1;SDS_P2;PMS_P1;PMS_P2;Temp;Humidity;BMP_temperature;BMP_pressure;BME280_temperature;BME280_humidity;BME280_pressure;Samples;Min_cycle;Max_cycle;Signal;HPM_P1;HPM_P2
2023/05/16 00:00:57;;;;;;;4.73;3.93;;;;;;;13.02;76.56;99480.84;5070013;28;20225;-45
2023/05/16 00:03:25;;;;;;;4.50;4.10;;;;;;;13.05;76.92;99488.50;5062137;28;20270;-45
2023/05/16 00:05:55;;;;;;;4.57;3.63;;;;;;;13.05;76.59;99485.09;5058532;28;20205;-52
2023/05/16 00:08:22;;;;;;;4.20;3.80;;;;;;;13.05;76.81;99488.50;5062208;28;20274;-52
2023/05/16 00:10:50;;;;;;;4.20;3.80;;;;;;;13.04;76.54;99488.56;5071006;28;20221;-45
2023/05/16 00:13:28;;;;;;;5.57;4.23;;;;;;;13.07;77.04;99488.47;5069734;28;20240;-49
2023/05/16 00:15:56;;;;;;;4.67;3.77;;;;;;;13.08;76.55;99491.91;5069595;28;20213;-45
2023/05/16 00:18:25;;;;;;;5.67;4.40;;;;;;;13.08;76.57;99491.91;5071781;28;20201;-45
2023/05/16 00:20:55;;;;;;;4.97;4.37;;;;;;;13.10;76.35;99479.75;5065537;28;20201;-49
2023/05/16 00:23:23;;;;;;;5.50;4.50;;;;;;;13.11;76.73;99491.78;5071751;28;20233;-57
2023/05/16 00:25:50;;;;;;;4.40;3.97;;;;;;;13.11;75.97;99486.63;5070187;28;20240;-46
2023/05/16 00:28:18;;;;;;;5.20;3.97;;;;;;;13.10;76.26;99490.94;5071641;28;20201;-47
2023/05/16 00:30:46;;;;;;;5.33;4.83;;;;;;;13.10;76.54;99487.53;5071732;28;20220;-47
2023/05/16 00:33:14;;;;;;;5.17;4.60;;;;;;;13.09;76.29;99488.44;5070001;28;20248;-45
2023/05/16 00:35:42;;;;;;;5.73;5.23;;;;;;;13.09;76.35;99491.84;5071078;28;20557;-46
2023/05/16 00:38:11;;;;;;;5.10;4.60;;;;;;;13.10;76.45;99487.53;5068671;28;20247;-46
2023/05/16 00:40:39;;;;;;;4.90;4.40;;;;;;;13.09;76.40;99489.25;5069938;28;20680;-46
2023/05/16 00:43:07;;;;;;;5.33;4.50;;;;;;;13.06;76.16;99487.63;5068598;28;20194;-45
2023/05/16 00:45:35;;;;;;;5.20;4.70;;;;;;;13.04;76.62;99494.59;5067187;28;20282;-45
2023/05/16 00:48:03;;;;;;;5.40;4.90;;;;;;;13.01;76.83;99491.25;5070874;28;20201;-46
2023/05/16 00:50:33;;;;;;;6.27;4.90;;;;;;;13.01;76.45;99491.25;5068348;28;20628;-46
2023/05/16 00:53:01;;;;;;;5.13;4.63;;;;;;;13.02;76.92;99487.75;5070648;28;20232;-45
2023/05/16 00:55:31;;;;;;;5.37;4.87;;;;;;;13.00;76.75;99489.56;5068845;28;20271;-46
2023/05/16 00:57:59;;;;;;;5.87;5.17;;;;;;;12.96;77.11;99491.41;5069382;28;20212;-46
2023/05/16 01:00:27;;;;;;;5.93;4.90;;;;;;;12.95;77.51;99489.69;5070222;28;20304;-45
2023/05/16 01:02:56;;;;;;;6.63;5.93;;;;;;;13.00;77.16;99482.66;5068531;28;20284;-45
2023/05/16 01:05:24;;;;;;;5.60;5.10;;;;;;;13.02;76.83;99482.59;5067747;28;20263;-48
2023/05/16 01:07:52;;;;;;;5.73;5.23;;;;;;;13.02;77.12;99478.25;5065426;28;20209;-45
2023/05/16 01:10:19;;;;;;;7.77;5.33;;;;;;;13.01;77.27;99486.91;5071199;28;20718;-45
2023/05/16 01:13:01;;;;;;;5.90;5.33;;;;;;;13.02;77.16;99483.44;5070349;28;20201;-46
2023/05/16 01:15:32;;;;;;;6.27;5.40;;;;;;;13.00;76.91;99498.16;5069817;28;20259;-45
2023/05/16 01:18:05;;;;;;;6.27;5.43;;;;;;;12.93;77.25;99501.81;5065723;28;20208;-45
2023/05/16 01:20:48;;;;;;;6.87;5.57;;;;;;;12.91;76.98;99501.00;5069552;28;20239;-45
2023/05/16 01:23:40;;;;;;;6.40;5.80;;;;;;;12.89;77.25;99501.97;5067223;28;20209;-45
2023/05/16 01:26:15;;;;;;;5.87;5.23;;;;;;;12.85;77.46;99501.22;5060904;28;20290;-48
2023/05/16 01:28:45;;;;;;;6.80;6.17;;;;;;;12.84;77.69;99509.84;5061874;28;20296;-46
2023/05/16 01:31:13;;;;;;;6.60;5.93;;;;;;;12.84;78.14;99511.56;5068106;28;20205;-45
2023/05/16 01:33:41;;;;;;;6.30;5.70;;;;;;;12.85;77.88;99514.13;5069761;28;20211;-46
2023/05/16 01:36:17;;;;;;;6.50;5.90;;;;;;;12.86;77.68;99517.56;5060242;28;20236;-46
2023/05/16 01:38:53;;;;;;;6.40;5.80;;;;;;;12.85;77.61;99523.59;5067046;28;20197;-46
2023/05/16 01:41:27;;;;;;;5.93;5.40;;;;;;;12.86;77.72;99526.16;5066893;28;20217;-46
2023/05/16 01:44:01;;;;;;;5.77;5.13;;;;;;;12.86;77.63;99531.34;5068807;28;20197;-47
2023/05/16 01:46:33;;;;;;;6.47;5.87;;;;;;;12.88;78.01;99534.72;5069416;28;20219;-44
2023/05/16 01:49:15;;;;;;;7.03;6.40;;;;;;;12.88;77.39;99534.72;5068807;28;20209;-45
2023/05/16 01:51:49;;;;;;;7.47;6.07;;;;;;;12.89;77.55;99535.59;5069083;28;20216;-45
2023/05/16 01:54:20;;;;;;;7.17;6.47;;;;;;;12.92;77.70;99525.13;5069218;28;20197;-46
2023/05/16 01:56:53;;;;;;;7.07;6.30;;;;;;;12.91;77.62;99521.69;5067740;28;20201;-45
2023/05/16 01:59:22;;;;;;;6.47;5.87;;;;;;;12.92;77.13;99535.47;5065082;28;20247;-46
2023/05/16 02:01:50;;;;;;;6.50;5.90;;;;;;;12.91;77.16;99538.94;5068064;28;20295;-45
2023/05/16 02:04:18;;;;;;;5.67;5.17;;;;;;;12.89;77.31;99530.41;5069840;28;20233;-47
2023/05/16 02:06:46;;;;;;;7.07;6.07;;;;;;;12.84;77.18;99532.25;5068372;28;20209;-45
2023/05/16 02:09:14;;;;;;;6.73;6.13;;;;;;;12.81;77.53;99540.94;5068925;28;20733;-47
2023/05/16 02:11:42;;;;;;;7.00;6.40;;;;;;;12.81;77.75;99535.78;5069526;28;20244;-45
2023/05/16 02:14:11;;;;;;;6.33;5.67;;;;;;;12.80;77.10;99541.84;5068028;28;20205;-47
2023/05/16 02:16:39;;;;;;;6.73;6.13;;;;;;;12.78;77.40;99543.66;5067778;28;20225;-49
2023/05/16 02:19:07;;;;;;;6.53;5.93;;;;;;;12.74;77.28;99535.13;5070512;28;20213;-45
2023/05/16 02:21:35;;;;;;;6.70;6.10;;;;;;;12.73;77.63;99541.16;5068916;28;20687;-45
2023/05/16 02:24:03;;;;;;;7.33;6.63;;;;;;;12.72;77.25;99542.06;5068528;28;20303;-45
2023/05/16 02:26:31;;;;;;;6.93;6.33;;;;;;;12.71;77.82;99537.78;5068581;28;20683;-45
2023/05/16 02:28:59;;;;;;;7.13;6.53;;;;;;;12.71;77.94;99539.53;5069034;28;20255;-45
2023/05/16 02:31:29;;;;;;;9.13;6.33;;;;;;;12.71;77.86;99540.38;5056939;28;20197;-47
2023/05/16 02:33:58;;;;;;;7.07;6.37;;;;;;;12.74;77.24;99548.06;5068124;28;20201;-49
2023/05/16 02:36:26;;;;;;;8.83;5.70;;;;;;;12.73;77.17;99550.66;5061631;28;20232;-47
2023/05/16 02:38:54;;;;;;;6.93;6.30;;;;;;;12.74;77.29;99552.34;5069832;28;20201;-45
2023/05/16 02:41:22;;;;;;;6.87;6.27;;;;;;;12.72;77.01;99548.97;5073969;28;20737;-47
2023/05/16 02:43:49;;;;;;;8.37;6.53;;;;;;;12.72;76.69;99554.16;5071885;28;20718;-46
2023/05/16 02:46:25;;;;;;;7.07;6.30;;;;;;;12.68;76.12;99558.56;5066363;28;20205;-54
2023/05/16 02:48:55;;;;;;;6.63;6.03;;;;;;;12.65;76.18;99552.63;5071214;28;20452;-46
2023/05/16 02:51:24;;;;;;;6.83;6.23;;;;;;;12.60;76.86;99554.50;5066642;28;20197;-46
2023/05/16 02:53:53;;;;;;;7.50;6.80;;;;;;;12.56;76.95;99556.31;5073620;28;20240;-45
2023/05/16 02:56:21;;;;;;;6.70;6.00;;;;;;;12.53;76.54;99553.81;5072131;28;20231;-51
2023/05/16 02:58:50;;;;;;;6.63;6.00;;;;;;;12.51;77.11;99553.84;5073549;28;20210;-48
2023/05/16 03:01:18;;;;;;;8.03;6.70;;;;;;;12.49;77.22;99558.22;5071351;28;20204;-46
2023/05/16 03:03:46;;;;;;;6.30;5.80;;;;;;;12.49;76.66;99563.38;5066843;28;20206;-45
2023/05/16 03:06:15;;;;;;;7.73;6.53;;;;;;;12.46;77.02;99562.63;5067602;28;20521;-45
2023/05/16 03:08:43;;;;;;;6.70;6.00;;;;;;;12.44;76.84;99565.22;5070824;28;20591;-47
2023/05/16 03:11:11;;;;;;;6.97;6.17;;;;;;;12.41;76.85;99565.34;5071678;28;20223;-46
2023/05/16 03:13:39;;;;;;;7.60;6.07;;;;;;;12.38;76.67;99569.75;5070562;28;20693;-45
2023/05/16 03:16:07;;;;;;;6.90;6.30;;;;;;;12.36;76.94;99551.69;5071075;28;20742;-47
2023/05/16 03:18:35;;;;;;;6.73;6.10;;;;;;;12.36;76.89;99556.84;5071626;28;20213;-45
2023/05/16 03:21:03;;;;;;;7.10;6.40;;;;;;;12.37;76.42;99560.28;5070760;28;20209;-44
2023/05/16 03:23:32;;;;;;;6.13;5.53;;;;;;;12.38;76.71;99557.66;5072672;28;20279;-47
2023/05/16 03:26:00;;;;;;;7.40;6.27;;;;;;;12.38;76.60;99565.41;5070860;28;20253;-54
2023/05/16 03:28:28;;;;;;;8.43;6.10;;;;;;;12.37;76.69;99571.47;5071659;28;20683;-49
2023/05/16 03:30:55;;;;;;;11.17;6.70;;;;;;;12.39;76.77;99567.09;5067576;28;20201;-49
2023/05/16 03:33:23;;;;;;;7.10;6.03;;;;;;;12.45;76.59;99561.78;5072283;28;20193;-47
2023/05/16 03:35:52;;;;;;;6.80;6.10;;;;;;;12.50;76.54;99569.41;5071414;28;20197;-46
2023/05/16 03:38:20;;;;;;;8.47;6.60;;;;;;;12.52;76.32;99571.06;5069366;28;20233;-45
2023/05/16 03:40:50;;;;;;;6.57;5.97;;;;;;;12.53;76.07;99569.31;5071055;28;20251;-46
2023/05/16 03:43:18;;;;;;;6.73;5.80;;;;;;;12.58;76.12;99572.63;5064729;28;20957;-46
2023/05/16 03:45:45;;;;;;;6.33;5.77;;;;;;;12.61;75.70;99558.78;5062914;28;20201;-45
2023/05/16 03:48:13;;;;;;;6.70;6.10;;;;;;;12.66;75.26;99570.66;5071312;28;20212;-46
2023/05/16 03:50:41;;;;;;;7.30;6.00;;;;;;;12.69;75.37;99567.16;5070023;28;20197;-46
2023/05/16 03:53:10;;;;;;;6.53;5.93;;;;;;;12.70;75.47;99574.00;5072400;28;20244;-47
2023/05/16 03:55:38;;;;;;;6.77;6.10;;;;;;;12.73;75.37;99571.34;5064508;28;20209;-45
2023/05/16 03:58:07;;;;;;;8.03;5.90;;;;;;;12.79;75.21;99578.94;5072257;28;20205;-46
2023/05/16 04:00:36;;;;;;;7.00;6.40;;;;;;;12.79;75.09;99576.34;5065715;28;20664;-45
2023/05/16 04:03:04;;;;;;;7.07;6.13;;;;;;;12.81;74.76;99580.59;5071716;28;20232;-49
2023/05/16 04:05:32;;;;;;;7.50;5.83;;;;;;;12.86;74.75;99579.63;5067120;28;20201;-46
2023/05/16 04:08:00;;;;;;;6.60;5.97;;;;;;;12.88;74.39;99570.06;5071443;28;20284;-46
2023/05/16 04:10:28;;;;;;;6.97;6.13;;;;;;;12.93;74.86;99578.56;5069829;28;20218;-46
2023/05/16 04:12:55;;;;;;;7.07;6.47;;;;;;;12.98;74.61;99574.09;5069485;28;20208;-46
2023/05/16 04:15:25;;;;;;;6.57;6.00;;;;;;;13.08;74.43;99575.53;5070329;28;20254;-45
2023/05/16 04:17:53;;;;;;;6.93;6.33;;;;;;;13.14;73.98;99582.25;5069896;28;20233;-45
2023/05/16 04:20:21;;;;;;;7.03;6.43;;;;;;;13.20;73.83;99582.06;5071293;28;20693;-46
2023/05/16 04:22:49;;;;;;;6.87;6.27;;;;;;;13.27;74.12;99584.47;5071107;28;20760;-46
2023/05/16 04:25:17;;;;;;;7.33;6.07;;;;;;;13.38;72.36;99586.72;5068338;28;20237;-48
2023/05/16 04:27:45;;;;;;;6.97;6.30;;;;;;;13.41;72.83;99583.19;5063013;28;20205;-53
2023/05/16 04:30:14;;;;;;;6.83;6.20;;;;;;;13.41;72.75;99584.03;5063515;28;20205;-46
2023/05/16 04:32:43;;;;;;;7.40;6.70;;;;;;;13.42;72.74;99574.53;5070854;28;20618;-47
2023/05/16 04:35:11;;;;;;;7.40;6.20;;;;;;;13.46;72.40;99584.75;5070762;28;20201;-46
2023/05/16 04:37:39;;;;;;;7.00;6.30;;;;;;;13.49;72.07;99576.88;5070872;28;20233;-47
2023/05/16 04:40:08;;;;;;;6.93;6.33;;;;;;;13.58;72.34;99577.50;5067205;28;20255;-49
2023/05/16 04:42:36;;;;;;;9.53;6.47;;;;;;;13.62;71.31;99579.94;5068513;28;20256;-46
2023/05/16 04:45:09;;;;;;;7.17;6.30;;;;;;;13.65;71.16;99597.97;5063890;28;20703;-47
2023/05/16 04:47:37;;;;;;;6.70;6.07;;;;;;;13.67;71.17;99588.41;5057993;28;20209;-46
2023/05/16 04:50:08;;;;;;;6.90;6.00;;;;;;;13.70;70.50;99582.31;5066974;28;20209;-46
2023/05/16 04:52:37;;;;;;;8.27;5.37;;;;;;;13.67;69.43;99595.34;5070665;28;20205;-46
2023/05/16 04:55:05;;;;;;;6.13;5.53;;;;;;;13.76;70.64;99598.47;5067695;28;20246;-50
2023/05/16 04:57:33;;;;;;;6.33;5.73;;;;;;;13.89;69.41;99596.34;5070261;28;20636;-48
2023/05/16 05:00:04;;;;;;;6.60;5.60;;;;;;;14.06;69.18;99593.19;5068821;28;20201;-46
2023/05/16 05:02:32;;;;;;;9.23;6.20;;;;;;;14.38;66.85;99594.69;5059513;28;20244;-46
2023/05/16 05:05:00;;;;;;;5.93;5.23;;;;;;;14.61;66.29;99608.63;5062217;28;20846;-45
2023/05/16 05:07:29;;;;;;;5.60;5.10;;;;;;;14.78;66.03;99614.09;5067614;28;20747;-45
2023/05/16 05:09:57;;;;;;;6.32;5.72;;;;;;;15.03;63.93;99616.66;5065066;28;20228;-49
2023/05/16 05:12:26;;;;;;;5.28;4.82;;;;;;;15.22;63.66;99596.88;5063650;28;20308;-53
2023/05/16 05:14:54;;;;;;;5.03;4.55;;;;;;;15.26;62.93;99609.75;5068181;28;20197;-47
2023/05/16 05:17:22;;;;;;;8.88;5.13;;;;;;;15.51;62.24;99609.66;5063090;28;20576;-52
2023/05/16 05:19:50;;;;;;;6.63;5.15;;;;;;;15.72;61.08;99606.25;5065541;28;20213;-46
2023/05/16 05:22:18;;;;;;;7.82;5.57;;;;;;;16.27;60.19;99605.75;5066478;28;20205;-47
2023/05/16 05:24:48;;;;;;;5.28;4.78;;;;;;;16.76;57.50;99595.88;5068945;28;20757;-49
2023/05/16 05:27:15;;;;;;;6.70;5.55;;;;;;;16.94;56.99;99599.41;5068371;28;20618;-47
2023/05/16 05:29:43;;;;;;;5.72;5.18;;;;;;;16.80;57.30;99621.69;5067117;28;20201;-47
2023/05/16 05:32:11;;;;;;;6.85;5.03;;;;;;;16.75;56.86;99615.81;5066378;28;20204;-47
2023/05/16 05:34:39;;;;;;;6.97;5.95;;;;;;;16.54;58.68;99611.53;5060867;28;20201;-46
2023/05/16 05:37:07;;;;;;;5.40;4.90;;;;;;;17.14;56.67;99614.97;5066350;28;20197;-46
2023/05/16 05:39:35;;;;;;;7.07;5.30;;;;;;;17.85;53.67;99625.56;5069414;28;20209;-46
2023/05/16 05:42:05;;;;;;;6.25;5.63;;;;;;;17.62;53.64;99635.28;5067988;28;20573;-48
2023/05/16 05:44:33;;;;;;;5.72;5.05;;;;;;;17.10;56.20;99631.66;5064124;28;20240;-47
2023/05/16 05:47:01;;;;;;;5.85;5.25;;;;;;;17.35;55.12;99634.00;5064196;28;20208;-47
2023/05/16 05:49:29;;;;;;;5.43;4.93;;;;;;;16.89;56.15;99638.66;5064197;28;20233;-47
2023/05/16 05:51:57;;;;;;;5.95;5.40;;;;;;;16.19;58.92;99651.09;5053794;28;20539;-47
2023/05/16 05:54:25;;;;;;;6.65;6.13;;;;;;;15.85;60.24;99640.38;5067141;28;20202;-55
2023/05/16 05:56:53;;;;;;;6.20;5.60;;;;;;;15.60;61.21;99649.09;5065789;28;20684;-46
2023/05/16 05:59:22;;;;;;;6.95;6.35;;;;;;;15.41;62.21;99658.50;5067336;28;20238;-46
2023/05/16 06:01:51;;;;;;;7.00;6.30;;;;;;;15.29;62.82;99669.34;5071125;28;20233;-46
2023/05/16 06:04:19;;;;;;;8.25;5.80;;;;;;;15.01;63.01;99679.88;5070386;28;20217;-52
2023/05/16 06:06:48;;;;;;;6.35;5.75;;;;;;;14.79;63.13;99685.81;5067916;28;20213;-48
2023/05/16 06:09:15;;;;;;;7.80;6.57;;;;;;;14.61;65.02;99687.28;5070432;28;20237;-50
2023/05/16 06:11:44;;;;;;;6.53;5.93;;;;;;;14.65;63.97;99693.19;5070063;28;20202;-46
2023/05/16 06:14:14;;;;;;;8.13;6.78;;;;;;;14.63;64.32;99695.84;5072058;28;20626;-45
2023/05/16 06:16:43;;;;;;;6.97;6.30;;;;;;;14.60;64.38;99705.47;5074687;28;20568;-51
2023/05/16 06:19:14;;;;;;;7.63;6.03;;;;;;;14.44;65.28;99710.31;5070021;28;20300;-46
2023/05/16 06:21:43;;;;;;;8.10;7.40;;;;;;;14.37;65.67;99725.19;5065420;28;20207;-47
2023/05/16 06:24:11;;;;;;;7.70;6.87;;;;;;;14.32;65.55;99724.47;5065073;28;20247;-48
2023/05/16 06:26:39;;;;;;;8.07;7.32;;;;;;;14.23;65.24;99732.56;5063170;28;20316;-48
2023/05/16 06:29:07;;;;;;;7.70;7.00;;;;;;;14.22;66.22;99730.88;5067571;28;20258;-45
2023/05/16 06:31:35;;;;;;;7.27;6.57;;;;;;;14.22;66.02;99730.88;5072627;28;20213;-46
2023/05/16 06:34:04;;;;;;;7.90;7.10;;;;;;;14.16;66.30;99736.25;5072463;28;20292;-48
2023/05/16 06:36:32;;;;;;;7.53;6.72;;;;;;;14.19;66.69;99749.13;5070788;28;21168;-46
2023/05/16 06:39:00;;;;;;;9.60;7.47;;;;;;;14.16;67.11;99752.63;5072913;28;20201;-45
2023/05/16 06:41:28;;;;;;;7.83;7.13;;;;;;;14.07;66.71;99757.28;5071869;28;20228;-51
2023/05/16 06:43:56;;;;;;;8.70;7.83;;;;;;;14.01;67.09;99756.53;5069566;28;20262;-51
2023/05/16 06:46:25;;;;;;;7.80;7.00;;;;;;;13.99;66.82;99749.69;5065203;28;20231;-50
2023/05/16 06:48:53;;;;;;;7.67;7.07;;;;;;;13.94;66.58;99769.72;5071800;28;20360;-50
2023/05/16 06:51:22;;;;;;;7.43;6.67;;;;;;;13.86;66.88;99771.69;5071807;28;20205;-45
2023/05/16 06:53:50;;;;;;;8.20;7.40;;;;;;;13.74;66.73;99775.50;5073172;28;20206;-46
2023/05/16 06:56:18;;;;;;;7.40;6.70;;;;;;;13.71;66.18;99780.75;5068054;28;20209;-46
2023/05/16 06:58:46;;;;;;;7.47;6.57;;;;;;;13.67;66.89;99774.81;5068006;28;20205;-48
2023/05/16 07:01:13;;;;;;;6.20;5.70;;;;;;;13.75;66.61;99792.72;5069093;28;20201;-45
2023/05/16 07:03:42;;;;;;;7.20;6.50;;;;;;;13.66;66.81;99783.50;5069673;28;20244;-50
2023/05/16 07:06:10;;;;;;;7.87;6.50;;;;;;;13.65;67.26;99789.53;5069826;28;20201;-47
2023/05/16 07:08:39;;;;;;;6.87;6.27;;;;;;;13.80;67.01;99798.59;5070444;28;20303;-53
2023/05/16 07:11:07;;;;;;;7.17;6.00;;;;;;;13.96;66.32;99807.66;5062063;28;20636;-55
2023/05/16 07:13:35;;;;;;;8.17;6.77;;;;;;;14.10;65.23;99798.59;5065370;28;20197;-52
2023/05/16 07:16:03;;;;;;;6.20;5.70;;;;;;;14.25;64.82;99803.34;5061638;28;20201;-51
2023/05/16 07:18:31;;;;;;;7.07;6.37;;;;;;;14.37;64.27;99818.50;5059516;28;20193;-52
2023/05/16 07:20:59;;;;;;;7.45;6.03;;;;;;;14.43;63.96;99817.47;5066692;28;20293;-49
2023/05/16 07:23:27;;;;;;;10.07;7.30;;;;;;;14.49;64.38;99820.75;5063129;28;20197;-52
2023/05/16 07:25:57;;;;;;;7.00;6.33;;;;;;;14.50;64.03;99830.22;5067255;28;20614;-50
2023/05/16 07:28:25;;;;;;;7.33;6.03;;;;;;;14.54;63.70;99827.53;5059709;28;20225;-56
2023/05/16 07:30:53;;;;;;;6.15;5.55;;;;;;;14.36;63.82;99831.50;5073192;28;20213;-52
2023/05/16 07:33:21;;;;;;;5.95;5.45;;;;;;;15.20;63.34;99831.41;5067821;28;20208;-52
2023/05/16 07:35:49;;;;;;;5.63;3.97;;;;;;;17.21;58.12;99831.66;5067881;28;20205;-51
2023/05/16 07:38:18;;;;;;;4.53;3.88;;;;;;;19.49;49.64;99818.38;5067274;28;20616;-54
2023/05/16 07:40:46;;;;;;;3.90;3.42;;;;;;;20.94;43.13;99820.03;5071173;28;20205;-56
2023/05/16 07:43:15;;;;;;;3.28;2.72;;;;;;;21.98;43.12;99819.03;5071046;28;20518;-53
2023/05/16 07:45:43;;;;;;;3.25;2.95;;;;;;;22.43;39.15;99824.97;5069418;28;20217;-54
2023/05/16 07:48:11;;;;;;;2.85;2.65;;;;;;;21.83;39.92;99828.69;5071261;28;20295;-56
2023/05/16 07:50:39;;;;;;;4.03;3.30;;;;;;;20.05;44.14;99848.53;5068477;28;20209;-53
2023/05/16 07:53:07;;;;;;;4.50;3.33;;;;;;;18.36;48.19;99861.31;5068173;28;20736;-52
2023/05/16 07:55:35;;;;;;;3.70;3.28;;;;;;;17.44;51.47;99862.75;5069179;28;20197;-56
2023/05/16 07:58:03;;;;;;;3.85;3.55;;;;;;;16.70;54.15;99867.53;5064565;28;20531;-52
2023/05/16 08:00:33;;;;;;;3.35;3.03;;;;;;;16.03;55.62;99870.94;5069692;28;20208;-60
2023/05/16 08:03:01;;;;;;;3.60;3.30;;;;;;;15.74;57.01;99866.78;5065318;28;20231;-50
2023/05/16 08:05:29;;;;;;;3.60;3.30;;;;;;;15.56;57.40;99870.84;5070584;28;20630;-50
2023/05/16 08:07:57;;;;;;;2.92;2.72;;;;;;;15.30;58.47;99869.16;5069057;28;20240;-52
2023/05/16 08:10:25;;;;;;;5.00;3.20;;;;;;;15.26;58.79;99867.56;5067124;28;20209;-50
2023/05/16 08:12:53;;;;;;;2.90;2.60;;;;;;;15.16;59.49;99872.19;5071537;28;20264;-59
2023/05/16 08:15:21;;;;;;;2.80;2.60;;;;;;;15.09;59.61;99885.44;5066545;28;20198;-51
2023/05/16 08:17:51;;;;;;;2.92;2.72;;;;;;;15.00;60.20;99876.22;5065836;28;20197;-51
2023/05/16 08:20:19;;;;;;;2.70;2.50;;;;;;;15.09;60.70;99893.22;5062185;28;20205;-52
2023/05/16 08:22:46;;;;;;;3.33;3.03;;;;;;;15.13;60.63;99887.03;5068334;28;20660;-52
2023/05/16 08:25:14;;;;;;;4.30;3.20;;;;;;;15.11;61.17;99881.06;5064834;28;20237;-48
2023/05/16 08:27:44;;;;;;;5.47;2.67;;;;;;;15.04;61.13;99882.16;5070600;28;20548;-49
2023/05/16 08:30:15;;;;;;;3.38;3.08;;;;;;;15.09;61.45;99882.84;5067122;28;20205;-56
2023/05/16 08:32:43;;;;;;;4.03;2.70;;;;;;;15.20;60.69;99883.34;5067665;28;20224;-48
2023/05/16 08:35:13;;;;;;;4.30;2.55;;;;;;;15.31;60.95;99890.75;5063247;28;20320;-50
2023/05/16 08:37:44;;;;;;;2.70;2.50;;;;;;;15.41;61.00;99872.22;5066997;28;20235;-52
2023/05/16 08:40:14;;;;;;;3.35;3.10;;;;;;;15.57;59.63;99875.13;5063893;28;20622;-48
2023/05/16 08:42:42;;;;;;;2.85;2.50;;;;;;;15.63;59.55;99869.75;5067871;28;20209;-51
2023/05/16 08:45:13;;;;;;;2.70;2.50;;;;;;;15.70;60.01;99867.81;5064730;28;20221;-60
2023/05/16 08:47:43;;;;;;;2.70;2.50;;;;;;;15.64;60.00;99876.63;5070143;28;20395;-51
2023/05/16 08:50:15;;;;;;;3.10;2.35;;;;;;;15.79;59.93;99880.47;5055383;28;20279;-51
2023/05/16 08:52:47;;;;;;;2.90;2.70;;;;;;;15.97;59.45;99883.31;5052938;28;21893;-53
2023/05/16 08:55:16;;;;;;;4.40;2.60;;;;;;;16.13;59.20;99879.25;5067997;28;20901;-50
2023/05/16 08:57:45;;;;;;;2.58;2.38;;;;;;;16.41;58.08;99887.69;5057923;28;20213;-51
2023/05/16 09:00:14;;;;;;;4.05;2.58;;;;;;;16.33;56.83;99884.53;5063127;28;20201;-51
2023/05/16 09:02:43;;;;;;;3.13;2.78;;;;;;;16.05;57.93;99892.50;5059095;28;21474;-53
2023/05/16 09:05:14;;;;;;;3.17;2.97;;;;;;;15.92;59.21;99886.06;5066128;28;20627;-53
2023/05/16 09:07:43;;;;;;;3.15;2.85;;;;;;;15.99;58.32;99894.50;5062658;28;20211;-51
2023/05/16 09:10:12;;;;;;;3.38;2.60;;;;;;;15.92;57.83;99888.69;5062785;28;20850;-56
2023/05/16 09:12:42;;;;;;;2.97;2.78;;;;;;;15.93;58.60;99891.22;5051481;28;20205;-56
2023/05/16 09:15:10;;;;;;;3.33;3.03;;;;;;;15.93;58.21;99891.22;5058199;28;20208;-59
2023/05/16 09:17:41;;;;;;;2.90;2.70;;;;;;;15.83;58.15;99889.00;5061004;28;20463;-50
2023/05/16 09:20:13;;;;;;;4.75;2.67;;;;;;;15.81;58.60;99889.06;5058618;28;20197;-54
2023/05/16 09:22:51;;;;;;;2.42;2.22;;;;;;;15.91;58.41;99887.84;5063106;28;20201;-54
2023/05/16 09:25:20;;;;;;;1.88;1.77;;;;;;;16.04;58.12;99900.38;5062345;28;20256;-49
2023/05/16 09:27:59;;;;;;;1.92;1.75;;;;;;;16.32;57.02;99900.22;5068240;28;20292;-51
2023/05/16 09:30:31;;;;;;;1.92;1.80;;;;;;;16.57;55.61;99905.31;5057664;28;20341;-61
2023/05/16 09:32:59;;;;;;;1.90;1.80;;;;;;;16.98;56.56;99913.31;5056820;28;20228;-61
2023/05/16 09:35:28;;;;;;;2.97;2.67;;;;;;;17.28;54.40;99932.88;5063379;28;20284;-47
2023/05/16 09:38:15;;;;;;;1.70;1.60;;;;;;;17.33;52.94;99935.28;5052975;28;20205;-49
2023/05/16 09:40:44;;;;;;;2.10;1.83;;;;;;;17.24;53.42;99925.28;5057192;28;20337;-51
2023/05/16 09:43:15;;;;;;;1.80;1.70;;;;;;;17.15;53.67;99931.69;5056810;28;20201;-49
2023/05/16 09:45:46;;;;;;;1.80;1.70;;;;;;;16.93;53.79;99936.91;5060683;28;20248;-49
2023/05/16 09:48:16;;;;;;;1.88;1.77;;;;;;;16.80;55.16;99946.94;5062311;28;20201;-50
2023/05/16 09:50:51;;;;;;;2.67;2.20;;;;;;;16.76;55.41;99944.53;5060690;28;20299;-50
2023/05/16 09:53:26;;;;;;;2.20;2.00;;;;;;;16.77;55.77;99947.06;5063170;28;20204;-51
2023/05/16 09:56:06;;;;;;;2.00;1.90;;;;;;;16.78;55.50;99951.34;5062925;28;20211;-45
2023/05/16 09:58:36;;;;;;;2.30;2.20;;;;;;;16.79;55.79;99955.66;5058694;28;20270;-46
2023/05/16 10:01:04;;;;;;;1.65;1.55;;;;;;;16.75;55.34;99956.66;5063286;28;20201;-45
2023/05/16 10:03:34;;;;;;;2.30;1.95;;;;;;;16.69;55.30;99964.69;5068304;28;20216;-47
2023/05/16 10:06:05;;;;;;;2.05;1.95;;;;;;;16.60;55.23;99976.28;5063092;28;20312;-46
2023/05/16 10:08:35;;;;;;;2.10;1.90;;;;;;;16.48;55.84;99981.09;5075282;28;20246;-47
2023/05/16 10:11:05;;;;;;;3.35;2.20;;;;;;;16.27;56.67;99993.13;5074661;28;20353;-47
2023/05/16 10:13:35;;;;;;;2.20;2.00;;;;;;;16.22;56.71;99984.66;5067306;28;20251;-46
2023/05/16 10:16:08;;;;;;;2.08;1.67;;;;;;;16.19;57.39;99976.03;5068060;28;20247;-45
2023/05/16 10:18:38;;;;;;;2.58;1.60;;;;;;;16.24;57.18;99994.09;5069610;28;20205;-47
2023/05/16 10:21:10;;;;;;;1.63;1.52;;;;;;;16.19;56.94;100003.78;5068166;28;20251;-46
2023/05/16 10:23:42;;;;;;;2.13;1.90;;;;;;;16.01;57.54;100005.28;5072503;28;20566;-45
2023/05/16 10:26:13;;;;;;;4.43;1.95;;;;;;;15.96;58.15;100007.19;5066539;28;20292;-46
2023/05/16 10:28:41;;;;;;;2.30;1.90;;;;;;;15.89;58.45;100014.34;5069732;28;20738;-48
2023/05/16 10:31:11;;;;;;;3.63;1.88;;;;;;;15.78;58.40;100011.28;5070328;28;20669;-46
2023/05/16 10:33:39;;;;;;;2.58;1.70;;;;;;;15.73;58.23;100014.94;5066316;28;20557;-46
2023/05/16 10:36:10;;;;;;;2.88;1.80;;;;;;;15.72;58.87;100016.66;5064372;28;20284;-48
2023/05/16 10:38:39;;;;;;;2.30;2.10;;;;;;;15.77;58.70;100014.78;5064672;28;20210;-45
2023/05/16 10:41:08;;;;;;;3.80;1.90;;;;;;;15.76;59.25;100015.69;5071655;28;20571;-51
2023/05/16 10:43:36;;;;;;;2.15;1.95;;;;;;;15.81;59.03;100024.16;5063058;28;20668;-47
2023/05/16 10:46:08;;;;;;;3.15;1.88;;;;;;;15.87;59.19;100015.28;5072283;28;20244;-53
2023/05/16 10:48:38;;;;;;;1.83;1.70;;;;;;;15.93;58.31;100025.50;5068149;28;20205;-47
2023/05/16 10:51:36;;;;;;;2.00;1.90;;;;;;;15.99;58.16;100019.25;5073950;28;20751;-45
2023/05/16 10:54:09;;;;;;;3.35;2.10;;;;;;;16.04;57.15;100025.97;5069268;28;20197;-54
2023/05/16 10:56:37;;;;;;;2.08;1.90;;;;;;;16.08;57.28;100024.97;5069561;28;20197;-55
2023/05/16 10:59:23;;;;;;;2.20;1.63;;;;;;;16.18;57.18;100025.50;5064962;28;20201;-50
2023/05/16 11:01:53;;;;;;;1.73;1.45;;;;;;;16.24;56.48;100020.09;5070359;28;20198;-49
2023/05/16 11:04:21;;;;;;;1.98;1.55;;;;;;;16.28;56.62;100020.84;5072012;28;20209;-53
2023/05/16 11:06:57;;;;;;;2.47;1.70;;;;;;;16.28;56.29;100020.84;5047988;28;20738;-47
2023/05/16 11:09:27;;;;;;;2.20;1.90;;;;;;;16.22;56.22;100031.44;5064180;28;22438;-46
2023/05/16 11:12:05;;;;;;;3.45;1.58;;;;;;;16.29;56.82;100031.19;5072314;28;20660;-54
2023/05/16 11:14:38;;;;;;;2.03;1.60;;;;;;;16.34;56.65;100034.44;5072449;28;20216;-48
2023/05/16 11:17:11;;;;;;;1.52;1.42;;;;;;;16.38;56.50;100040.38;5072785;28;20201;-50
2023/05/16 11:19:42;;;;;;;1.73;1.63;;;;;;;16.42;56.45;100040.25;5067348;28;20640;-46
2023/05/16 11:22:15;;;;;;;3.00;1.50;;;;;;;16.52;56.45;100045.09;5069015;28;20579;-46
2023/05/16 11:24:52;;;;;;;1.90;1.58;;;;;;;16.65;56.14;100046.38;5069155;28;20245;-46
2023/05/16 11:27:22;;;;;;;1.88;1.73;;;;;;;16.71;55.56;100040.91;5065600;28;20213;-47
2023/05/16 11:29:50;;;;;;;1.60;1.50;;;;;;;16.66;55.33;100041.09;5071870;28;20219;-45
2023/05/16 11:32:23;;;;;;;1.30;1.20;;;;;;;16.63;55.85;100051.63;5070736;28;20205;-48
2023/05/16 11:34:53;;;;;;;4.57;1.70;;;;;;;16.63;56.54;100058.56;5072220;28;20254;-46
2023/05/16 11:37:22;;;;;;;2.00;1.80;;;;;;;16.60;56.32;100056.06;5061129;28;20205;-46
2023/05/16 11:39:50;;;;;;;2.80;1.67;;;;;;;16.60;56.45;100067.31;5070416;28;20209;-47
2023/05/16 11:42:18;;;;;;;2.03;1.83;;;;;;;16.70;56.40;100072.22;5068652;28;20225;-48